• Join FlightAware (Why Join?)
  • Login
  • US Flag 
09:05AM EDT


 

Airport Tracker/Info


-or-


 

Live Flight TrackerFlight Track Log ✈ RPA3457 ✈ 20-Jul-2013 ✈ KDCA - KTPA

Flight Track Log - Related Links

Times and Time Zones

All times are in EDT time to prevent confusion due to time zone crossing. See the RPA3457 flight status page for this flight to view local times or setup timezone preferences in your user account.

Time Position Orientation Groundspeed Altitude Reporting Facility
EDT Latitude Longitude Course Direction KTS MPH feet Rate Location/Type
10:25AM 38.8000 -77.0333 201° Southwest 176 203 1,600  Level Potomac TRACON
10:26AM 38.7333 -77.0333 180° South 259 298 2,800 2,100 Climbing Potomac TRACON
10:27AM 38.6224 -77.2943 218° Southwest  Level FlightAware Approximate
10:27AM 38.7000 -77.1167 243° Southwest 268 308 5,900  Level Potomac TRACON
10:28AM 38.5399 -77.3767 218° Southwest  Level FlightAware Approximate
10:28AM 38.6833 -77.2000 256° West 280 322 8,800  Level Potomac TRACON
10:29AM 38.4655 -77.4707 225° Southwest  Level FlightAware Approximate
10:29AM 38.6053 -77.2972 224° Southwest 290 334 11,000  Level Washington Center
10:30AM 38.3836 -77.5499 201° Southwest  Level FlightAware Approximate
10:30AM 38.5394 -77.3806 225° Southwest 311 358 13,100  Level Washington Center
10:31AM 38.4733 -77.4692 226° Southwest 330 380 15,100 1,860 Climbing Washington Center
10:32AM 38.4033 -77.5575 225° Southwest 352 405 17,000 1,860 Climbing Washington Center
10:33AM 38.3267 -77.6428 221° Southwest 357 411 18,900 1,740 Climbing Washington Center
10:34AM 38.2481 -77.7281 220° Southwest 369 425 20,500 1,500 Climbing Washington Center
10:35AM 38.1672 -77.8156 220° Southwest 374 430 22,000 1,320 Climbing Washington Center
10:36AM 38.0800 -77.9025 218° Southwest 391 450 23,200 1,260 Climbing Washington Center
10:37AM 37.9950 -77.9922 220° Southwest 396 456 24,500 1,080 Climbing Washington Center
10:38AM 37.9139 -78.0764 219° Southwest 410 472 25,400 840 Climbing Washington Center
10:39AM 37.8178 -78.1811 221° Southwest 415 478 26,200 840 Climbing Washington Center
10:40AM 37.7258 -78.2831 221° Southwest 421 484 27,100 840 Climbing Washington Center
10:41AM 37.6300 -78.3792 218° Southwest 436 502 27,900 900 Climbing Washington Center
10:42AM 37.5422 -78.4678 219° Southwest 442 509 29,000 960 Climbing Washington Center
10:43AM 37.4481 -78.5661 220° Southwest 442 509 29,800 840 Climbing Washington Center
10:44AM 37.3517 -78.6644 219° Southwest 442 509 30,800 900 Climbing Washington Center
10:45AM 37.2533 -78.7622 218° Southwest 447 514 31,700 960 Climbing Washington Center
10:46AM 37.1503 -78.8700 220° Southwest 447 514 32,700 840 Climbing Washington Center
10:47AM 37.0517 -78.9672 218° Southwest 447 514 33,500 600 Climbing Washington Center
10:48AM 36.9569 -79.0644 219° Southwest 447 514 34,000 240 Climbing Washington Center
10:49AM 36.8625 -79.1589 219° Southwest 447 514 34,000  Level Washington Center
10:50AM 36.7697 -79.2558 220° Southwest 441 507 34,000  Level Washington Center
10:51AM 36.6817 -79.3422 218° Southwest 441 507 34,000  Level Washington Center
10:52AM 36.5889 -79.4386 220° Southwest 441 507 34,000  Level Washington Center
10:53AM 36.4939 -79.5322 218° Southwest 436 502 34,000  Level Washington Center
10:54AM 36.3961 -79.6256 218° Southwest 443 510 34,000  Level Atlanta Center
10:55AM 36.3094 -79.7128 219° Southwest 430 495 34,000  Level Atlanta Center
10:56AM 36.2106 -79.8083 218° Southwest 435 501 34,100 480 Climbing Atlanta Center
10:57AM 36.1178 -79.9006 219° Southwest 440 506 35,000 780 Climbing Atlanta Center
10:58AM 36.0061 -79.9883 212° Southwest 440 506 35,700 480 Climbing Atlanta Center
10:59AM 35.8933 -80.0503 204° Southwest 435 501 36,000 120 Climbing Atlanta Center
11:00AM 35.7783 -80.1072 202° Southwest 441 507 36,000  Level Atlanta Center
11:01AM 35.6636 -80.1714 204° Southwest 453 521 36,000  Level Atlanta Center
11:02AM 35.5567 -80.2225 201° Southwest 459 528 36,000  Level Atlanta Center
11:03AM 35.4375 -80.2814 202° Southwest 464 534 36,000  Level Atlanta Center
11:04AM 35.3183 -80.3428 203° Southwest 471 542 36,000  Level Atlanta Center
11:05AM 35.1969 -80.4017 202° Southwest 466 536 36,000  Level Atlanta Center
11:06AM 35.0800 -80.4628 203° Southwest 466 536 36,000  Level Atlanta Center
11:07AM 34.9481 -80.5242 201° Southwest 466 536 36,000  Level Atlanta Center
11:09AM 34.6989 -80.6503 203° Southwest 480 552 36,000  Level Jacksonville Center
11:10AM 34.5606 -80.7219 203° Southwest 485 558 36,000  Level Jacksonville Center
11:11AM 34.4406 -80.7778 201° Southwest 486 559 36,000  Level Jacksonville Center
11:12AM 34.3161 -80.8361 201° Southwest 480 552 36,000  Level Jacksonville Center
11:13AM 34.2128 -80.8911 204° Southwest 471 542 36,000  Level Jacksonville Center
11:14AM 34.0886 -80.9467 200° South 476 548 36,000  Level Jacksonville Center
11:15AM 33.9683 -81.0044 202° Southwest 476 548 36,000  Level Jacksonville Center
11:16AM 33.8294 -81.0700 201° Southwest 470 541 36,000  Level Jacksonville Center
11:17AM 33.7197 -81.1272 203° Southwest 476 548 36,000  Level Jacksonville Center
11:18AM 33.5994 -81.1869 202° Southwest 476 548 36,000  Level Jacksonville Center
11:19AM 33.4772 -81.2492 203° Southwest 476 548 36,000  Level Jacksonville Center
11:20AM 33.3547 -81.3061 201° Southwest 476 548 36,000  Level Jacksonville Center
11:21AM 33.2242 -81.3656 201° Southwest 469 540 36,000  Level Jacksonville Center
11:22AM 33.0975 -81.4297 203° Southwest 474 545 36,000  Level Jacksonville Center
11:23AM 32.9750 -81.4886 202° Southwest 479 551 36,000  Level Jacksonville Center
11:24AM 32.8547 -81.5497 203° Southwest 474 545 36,000  Level Jacksonville Center
11:25AM 32.7342 -81.6058 201° Southwest 474 545 36,000  Level Jacksonville Center
11:26AM 32.6261 -81.6617 204° Southwest 469 540 36,000  Level Jacksonville Center
11:27AM 32.4953 -81.7250 202° Southwest 474 545 36,000  Level Jacksonville Center
11:28AM 32.3850 -81.7756 201° Southwest 474 545 36,000  Level Jacksonville Center
11:29AM 32.2539 -81.8386 202° Southwest 474 545 36,000  Level Jacksonville Center
11:30AM 32.1333 -81.8942 201° Southwest 467 537 36,000  Level Jacksonville Center
11:31AM 32.0231 -81.9492 203° Southwest 472 543 36,000  Level Jacksonville Center
11:32AM 31.8878 -82.0044 199° South 479 551 36,000  Level Jacksonville Center
11:33AM 31.7775 -82.0469 198° South 468 539 36,000  Level Jacksonville Center
11:34AM 31.6442 -82.1019 199° South 462 532 36,000  Level Jacksonville Center
11:35AM 31.5214 -82.1542 200° South 468 539 36,000  Level Jacksonville Center
11:36AM 31.3983 -82.1989 197° South 463 533 36,000  Level Jacksonville Center
11:37AM 31.2692 -82.2169 187° South 468 539 36,000  Level Jacksonville Center
11:38AM 31.1397 -82.2300 185° South 468 539 36,000  Level Jacksonville Center
11:39AM 31.0122 -82.2406 184° South 468 539 36,000  Level Jacksonville Center
11:40AM 30.8831 -82.2511 184° South 468 539 36,000  Level Jacksonville Center
11:41AM 30.7514 -82.2617 184° South 463 533 36,000  Level Jacksonville Center
11:42AM 30.6219 -82.2747 185° South 463 533 36,000  Level Jacksonville Center
11:43AM 30.4947 -82.2778 181° South 463 533 36,000  Level Jacksonville Center
11:44AM 30.3633 -82.2908 185° South 463 533 36,000 -300 Level Jacksonville Center
11:45AM 30.2339 -82.3011 184° South 463 533 35,500 -660 Descending Jacksonville Center
11:46AM 30.1211 -82.3114 185° South 463 533 34,700 -960 Descending Jacksonville Center
11:47AM 29.9731 -82.3292 186° South 473 544 33,600 -1,620 Descending Jacksonville Center
11:48AM 29.8456 -82.3419 185° South 479 551 31,500 -2,100 Descending Jacksonville Center
11:49AM 29.7289 -82.3450 181° South 479 551 29,500 -2,100 Descending Jacksonville Center
11:50AM 29.5972 -82.3575 185° South 479 551 27,300 -2,100 Descending Jacksonville Center
11:51AM 29.4761 -82.3367 171° South 462 532 25,300 -2,040 Descending Jacksonville Center
11:52AM 29.3592 -82.3183 172° South 443 510 23,300 -1,980 Descending Jacksonville Center
11:53AM 29.2442 -82.3072 175° South 433 498 21,400 -1,860 Descending Jacksonville Center
11:54AM 29.1336 -82.2983 176° South 420 483 19,600 -1,800 Descending Jacksonville Center
11:55AM 29.0292 -82.2869 175° South 396 456 17,800 -1,800 Descending Jacksonville Center
11:56AM 28.9269 -82.2758 175° South 382 440 16,100 -1,560 Descending Jacksonville Center
11:58AM 28.7500 -82.2667 177° South 300 345 13,300 -1,380 Descending Tampa TRACON
11:59AM 28.6667 -82.2500 170° South 291 335 12,000 -1,140 Descending Tampa TRACON
12:00PM 28.5833 -82.2500 180° South 285 328 11,000 -1,380 Descending Tampa TRACON
12:01PM 28.5167 -82.2500 180° South 280 322 9,300 -1,740 Descending Tampa TRACON
12:02PM 28.4333 -82.2500 180° South 275 316 7,700 -1,260 Descending Tampa TRACON
12:03PM 28.3667 -82.2500 180° South 268 308 7,000 -660 Descending Tampa TRACON
12:04PM 28.3167 -82.3000 221° Southwest 225 259 6,400 -1,020 Descending Tampa TRACON
12:05PM 28.2833 -82.3500 233° Southwest 220 253 5,000 -1,380 Descending Tampa TRACON
12:06PM 28.2500 -82.4167 240° Southwest 218 251 3,700 -1,020 Descending Tampa TRACON
12:07PM 28.2333 -82.4833 254° West 216 249 3,000 -300 Descending Tampa TRACON
12:08PM 28.1833 -82.5167 210° Southwest 196 226 3,100 60 Climbing Tampa TRACON